MGH2000 EGLL-TAPA
Flight info
| Callsign | MGH2000 |
|---|---|
| Flight time | 8h 14m |
| Altitude | 34000 |
| Route | GASGU N514 ADKIK DCT JOZMA DCT GAPLI/M083F340 DCT OMOKO DCT 47N015W 45N020W 39N030W 33N040W/M083F360 30N045W 27N050W 24N055W/M083F380 2354N05508W DCT AMTTO DCT ANU |
| Aircraft | B77W/H-SDE1E2E3FGHIJ2J3J4J5M1RWXY/LB1D1 |
Departure
| Time | 2026-04-30 14:40 |
|---|---|
| Airport | London Heathrow Airport (EGLL) |
Arrival
| Time | 2026-04-30 22:55 |
|---|---|
| Airport | V. C. Bird International Airport (TAPA) |
| Time | Latitude | Longitude | Altitude | Speed | Heading |
|---|---|---|---|---|---|
| 2026-04-30 14:13 | 51.46174 | -0.45587 | 96 ft | 0 kts | 235° |
| 2026-04-30 14:28 | 51.46179 | -0.45576 | 91 ft | 4 kts | 233° |
| 2026-04-30 14:29 | 51.46218 | -0.45519 | 93 ft | 4 kts | 201° |
| 2026-04-30 14:29 | 51.46251 | -0.45519 | 92 ft | 0 kts | 145° |
| 2026-04-30 14:32 | 51.46249 | -0.45516 | 92 ft | 1 kts | 145° |
| 2026-04-30 14:32 | 51.46243 | -0.45509 | 91 ft | 1 kts | 145° |
| 2026-04-30 14:33 | 51.46233 | -0.45498 | 94 ft | 2 kts | 145° |
| 2026-04-30 14:33 | 51.46202 | -0.45338 | 94 ft | 10 kts | 77° |
| 2026-04-30 14:33 | 51.46243 | -0.45244 | 95 ft | 10 kts | 43° |
| 2026-04-30 14:34 | 51.46305 | -0.45242 | 95 ft | 11 kts | 311° |
| 2026-04-30 14:34 | 51.46316 | -0.45360 | 94 ft | 11 kts | 270° |
| 2026-04-30 14:34 | 51.46316 | -0.45529 | 94 ft | 23 kts | 270° |
| 2026-04-30 14:34 | 51.46324 | -0.45783 | 91 ft | 23 kts | 270° |
| 2026-04-30 14:35 | 51.46321 | -0.46302 | 93 ft | 23 kts | 270° |
| 2026-04-30 14:35 | 51.46322 | -0.46559 | 92 ft | 23 kts | 270° |
| 2026-04-30 14:35 | 51.46322 | -0.46815 | 91 ft | 23 kts | 270° |
| 2026-04-30 14:36 | 51.46322 | -0.47074 | 92 ft | 23 kts | 270° |
| 2026-04-30 14:36 | 51.46325 | -0.47328 | 95 ft | 23 kts | 279° |
| 2026-04-30 14:36 | 51.46338 | -0.47584 | 95 ft | 23 kts | 261° |
| 2026-04-30 14:36 | 51.46271 | -0.47817 | 94 ft | 23 kts | 241° |
| 2026-04-30 14:37 | 51.46251 | -0.48071 | 93 ft | 23 kts | 270° |
| 2026-04-30 14:37 | 51.46250 | -0.48294 | 89 ft | 16 kts | 269° |
| 2026-04-30 14:37 | 51.46249 | -0.48470 | 90 ft | 13 kts | 269° |
| 2026-04-30 14:37 | 51.46261 | -0.48611 | 94 ft | 13 kts | 289° |
| 2026-04-30 14:38 | 51.46304 | -0.48703 | 94 ft | 10 kts | 334° |
| 2026-04-30 14:38 | 51.46369 | -0.48742 | 94 ft | 10 kts | 351° |
| 2026-04-30 14:38 | 51.46442 | -0.48744 | 93 ft | 10 kts | 18° |
| 2026-04-30 14:38 | 51.46478 | -0.48645 | 96 ft | 11 kts | 85° |
| 2026-04-30 14:39 | 51.46478 | -0.48617 | 94 ft | 0 kts | 90° |
| 2026-04-30 14:40 | 51.46479 | -0.48226 | 93 ft | 72 kts | 89° |
| 2026-04-30 14:40 | 51.46484 | -0.46996 | 95 ft | 145 kts | 90° |
| 2026-04-30 14:40 | 51.46475 | -0.45170 | 458 ft | 168 kts | 93° |
| 2026-04-30 14:40 | 51.46455 | -0.43277 | 1294 ft | 173 kts | 91° |
| 2026-04-30 14:41 | 51.46380 | -0.41328 | 2122 ft | 175 kts | 105° |
| 2026-04-30 14:41 | 51.45720 | -0.39594 | 2442 ft | 198 kts | 127° |
| 2026-04-30 14:41 | 51.44838 | -0.37669 | 2799 ft | 223 kts | 124° |
| 2026-04-30 14:41 | 51.43932 | -0.35616 | 3543 ft | 231 kts | 127° |
| 2026-04-30 14:42 | 51.42732 | -0.33901 | 4326 ft | 239 kts | 149° |
| 2026-04-30 14:42 | 51.41146 | -0.33025 | 5273 ft | 244 kts | 169° |
| 2026-04-30 14:42 | 51.39413 | -0.33105 | 5864 ft | 256 kts | 190° |
| 2026-04-30 14:42 | 51.37793 | -0.34314 | 6170 ft | 260 kts | 214° |
| 2026-04-30 14:43 | 51.36433 | -0.36233 | 6797 ft | 265 kts | 218° |
| 2026-04-30 14:43 | 51.35037 | -0.38220 | 7595 ft | 270 kts | 217° |
| 2026-04-30 14:43 | 51.33615 | -0.40230 | 8422 ft | 275 kts | 217° |
| 2026-04-30 14:43 | 51.32196 | -0.42246 | 9252 ft | 280 kts | 219° |
| 2026-04-30 14:44 | 51.30910 | -0.44725 | 10127 ft | 290 kts | 233° |
| 2026-04-30 14:44 | 51.29978 | -0.47610 | 10777 ft | 304 kts | 244° |
| 2026-04-30 14:44 | 51.29268 | -0.50982 | 11019 ft | 335 kts | 250° |
| 2026-04-30 14:44 | 51.28615 | -0.54745 | 11240 ft | 364 kts | 251° |
| 2026-04-30 14:45 | 51.27930 | -0.58731 | 11678 ft | 383 kts | 250° |
| 2026-04-30 14:45 | 51.27164 | -0.62853 | 12533 ft | 391 kts | 249° |
| 2026-04-30 14:45 | 51.26352 | -0.67057 | 13515 ft | 399 kts | 249° |
| 2026-04-30 14:45 | 51.25535 | -0.71245 | 14465 ft | 404 kts | 249° |
| 2026-04-30 14:46 | 51.24674 | -0.75658 | 15481 ft | 408 kts | 249° |
| 2026-04-30 14:46 | 51.23828 | -0.79996 | 16497 ft | 411 kts | 249° |
| 2026-04-30 14:46 | 51.22979 | -0.84360 | 17464 ft | 415 kts | 249° |
| 2026-04-30 14:46 | 51.22084 | -0.88709 | 18385 ft | 418 kts | 245° |
| 2026-04-30 14:47 | 51.20928 | -0.92969 | 19136 ft | 421 kts | 239° |
| 2026-04-30 14:47 | 51.19384 | -0.96935 | 19836 ft | 423 kts | 229° |
| 2026-04-30 14:47 | 51.17683 | -1.00431 | 20603 ft | 426 kts | 227° |
| 2026-04-30 14:47 | 51.15881 | -1.04167 | 21398 ft | 430 kts | 228° |
| 2026-04-30 14:48 | 51.14084 | -1.07967 | 22145 ft | 436 kts | 228° |
| 2026-04-30 14:48 | 51.12251 | -1.11891 | 22917 ft | 441 kts | 228° |
| 2026-04-30 14:48 | 51.10431 | -1.15811 | 23651 ft | 446 kts | 228° |
| 2026-04-30 14:48 | 51.08582 | -1.19800 | 24273 ft | 450 kts | 229° |
| 2026-04-30 14:49 | 51.06708 | -1.23840 | 24911 ft | 454 kts | 229° |
| 2026-04-30 14:49 | 51.04825 | -1.27885 | 25535 ft | 457 kts | 229° |
| 2026-04-30 14:49 | 51.02920 | -1.31977 | 26151 ft | 461 kts | 229° |
| 2026-04-30 14:49 | 51.01183 | -1.36315 | 26725 ft | 470 kts | 237° |
| 2026-04-30 14:50 | 50.98615 | -1.45993 | 27921 ft | 484 kts | 249° |
| 2026-04-30 14:50 | 50.97728 | -1.51161 | 28480 ft | 487 kts | 251° |
| 2026-04-30 14:51 | 50.96010 | -1.61609 | 29421 ft | 494 kts | 251° |
| 2026-04-30 14:51 | 50.95123 | -1.66910 | 29864 ft | 497 kts | 251° |
| 2026-04-30 14:51 | 50.93323 | -1.77402 | 30926 ft | 495 kts | 250° |
| 2026-04-30 14:52 | 50.92405 | -1.82678 | 31536 ft | 491 kts | 250° |
| 2026-04-30 14:52 | 50.90593 | -1.93036 | 32769 ft | 484 kts | 251° |
| 2026-04-30 14:52 | 50.89696 | -1.98151 | 33418 ft | 479 kts | 251° |
| 2026-04-30 14:53 | 50.87961 | -2.08031 | 34338 ft | 477 kts | 251° |
| 2026-04-30 14:53 | 50.87070 | -2.13104 | 34693 ft | 477 kts | 251° |
| 2026-04-30 14:54 | 50.85288 | -2.23228 | 35405 ft | 477 kts | 251° |
| 2026-04-30 14:54 | 50.83504 | -2.33301 | 36053 ft | 478 kts | 251° |
| 2026-04-30 14:55 | 50.81688 | -2.43504 | 36424 ft | 479 kts | 251° |
| 2026-04-30 14:55 | 50.80785 | -2.48557 | 36873 ft | 476 kts | 252° |
| 2026-04-30 14:55 | 50.79169 | -2.58607 | 37647 ft | 474 kts | 256° |
| 2026-04-30 14:56 | 50.77989 | -2.68846 | 38065 ft | 477 kts | 257° |
| 2026-04-30 14:57 | 50.76219 | -2.84366 | 38113 ft | 476 kts | 257° |
| 2026-04-30 14:58 | 50.73832 | -3.04488 | 38113 ft | 475 kts | 256° |
| 2026-04-30 14:58 | 50.71964 | -3.19969 | 38111 ft | 476 kts | 256° |
| 2026-04-30 15:00 | 50.68829 | -3.45574 | 38098 ft | 478 kts | 256° |
| 2026-04-30 15:01 | 50.66267 | -3.66145 | 38109 ft | 478 kts | 256° |
| 2026-04-30 15:01 | 50.64321 | -3.81574 | 38099 ft | 478 kts | 256° |
| 2026-04-30 15:02 | 50.63016 | -3.91836 | 38078 ft | 476 kts | 255° |
| 2026-04-30 15:03 | 50.59628 | -4.16873 | 38075 ft | 472 kts | 254° |
| 2026-04-30 15:04 | 50.56144 | -4.41939 | 38053 ft | 468 kts | 254° |
| 2026-04-30 15:06 | 50.52624 | -4.66920 | 38062 ft | 467 kts | 255° |
| 2026-04-30 15:07 | 50.49786 | -4.86764 | 38049 ft | 467 kts | 254° |
| 2026-04-30 15:08 | 50.46929 | -5.06482 | 38050 ft | 468 kts | 254° |
| 2026-04-30 15:09 | 50.43271 | -5.31367 | 38042 ft | 468 kts | 254° |
| 2026-04-30 15:10 | 50.40312 | -5.51212 | 38041 ft | 468 kts | 254° |
| 2026-04-30 15:11 | 50.35814 | -5.80899 | 38026 ft | 466 kts | 254° |
| 2026-04-30 15:13 | 50.32066 | -6.05230 | 38039 ft | 464 kts | 253° |
| 2026-04-30 15:14 | 50.26686 | -6.39520 | 38033 ft | 463 kts | 253° |
| 2026-04-30 15:17 | 50.19869 | -6.81974 | 38028 ft | 466 kts | 252° |
| 2026-04-30 15:19 | 50.13472 | -7.20861 | 38015 ft | 466 kts | 251° |
| 2026-04-30 17:39 | 39.62189 | -29.10419 | 37891 ft | 483 kts | 232° |
| 2026-04-30 17:42 | 39.39988 | -29.42690 | 37880 ft | 474 kts | 233° |
| 2026-04-30 17:43 | 39.29043 | -29.58479 | 37882 ft | 472 kts | 233° |
| 2026-04-30 17:44 | 39.15906 | -29.77325 | 37882 ft | 469 kts | 233° |
| 2026-04-30 17:47 | 38.97105 | -30.05432 | 37887 ft | 453 kts | 242° |
| 2026-04-30 17:48 | 38.85581 | -30.27857 | 37882 ft | 449 kts | 242° |
| 2026-04-30 17:50 | 38.71803 | -30.54268 | 37889 ft | 442 kts | 242° |
| 2026-04-30 17:52 | 38.61534 | -30.73818 | 37889 ft | 442 kts | 241° |
| 2026-04-30 17:54 | 38.46157 | -31.02871 | 37904 ft | 441 kts | 240° |
| 2026-04-30 17:56 | 38.32339 | -31.28758 | 37924 ft | 441 kts | 240° |
| 2026-04-30 17:58 | 38.21956 | -31.48075 | 37914 ft | 441 kts | 240° |
| 2026-04-30 18:00 | 38.08085 | -31.73706 | 37919 ft | 439 kts | 239° |
| 2026-04-30 18:01 | 37.99427 | -31.89604 | 37932 ft | 438 kts | 239° |
| 2026-04-30 18:02 | 37.89130 | -32.08410 | 37922 ft | 436 kts | 239° |
| 2026-04-30 18:04 | 37.78790 | -32.27190 | 37939 ft | 435 kts | 239° |
| 2026-04-30 18:06 | 37.64871 | -32.52302 | 37943 ft | 436 kts | 239° |
| 2026-04-30 18:08 | 37.52631 | -32.74227 | 37931 ft | 437 kts | 238° |
| 2026-04-30 18:10 | 37.38561 | -32.99254 | 37959 ft | 439 kts | 238° |
| 2026-04-30 18:11 | 37.26260 | -33.20980 | 37958 ft | 439 kts | 238° |
| 2026-04-30 18:13 | 37.17400 | -33.36542 | 37948 ft | 438 kts | 238° |
| 2026-04-30 18:14 | 37.08554 | -33.52009 | 37957 ft | 437 kts | 237° |
| 2026-04-30 18:15 | 36.97944 | -33.70466 | 37950 ft | 434 kts | 237° |
| 2026-04-30 18:16 | 36.90888 | -33.82685 | 37960 ft | 434 kts | 237° |
| 2026-04-30 18:17 | 36.87334 | -33.88822 | 37965 ft | 434 kts | 237° |
| 2026-04-30 18:18 | 36.82057 | -33.97916 | 37966 ft | 435 kts | 237° |
| 2026-04-30 18:18 | 36.78588 | -34.03881 | 37969 ft | 435 kts | 237° |
| 2026-04-30 18:19 | 36.75027 | -34.09991 | 37967 ft | 435 kts | 237° |
| 2026-04-30 18:19 | 36.71466 | -34.16092 | 37974 ft | 435 kts | 237° |
| 2026-04-30 18:20 | 36.67918 | -34.22158 | 37962 ft | 436 kts | 237° |
| 2026-04-30 18:20 | 36.64339 | -34.28268 | 37973 ft | 435 kts | 237° |
| 2026-04-30 18:21 | 36.60767 | -34.34354 | 37962 ft | 435 kts | 237° |
| 2026-04-30 18:21 | 36.57190 | -34.40436 | 37970 ft | 434 kts | 237° |
| 2026-04-30 18:22 | 36.53637 | -34.46468 | 37972 ft | 434 kts | 237° |
| 2026-04-30 18:22 | 36.48274 | -34.55554 | 37976 ft | 433 kts | 237° |
| 2026-04-30 18:23 | 36.44704 | -34.61588 | 37975 ft | 433 kts | 237° |
| 2026-04-30 18:23 | 36.41152 | -34.67582 | 37978 ft | 433 kts | 237° |
| 2026-04-30 18:24 | 36.35783 | -34.76622 | 37975 ft | 433 kts | 236° |
| 2026-04-30 18:25 | 36.32208 | -34.82628 | 37978 ft | 433 kts | 236° |
| 2026-04-30 18:25 | 36.26813 | -34.91670 | 37977 ft | 433 kts | 236° |
| 2026-04-30 18:26 | 36.21581 | -35.00417 | 37966 ft | 433 kts | 236° |
| 2026-04-30 18:27 | 36.16169 | -35.09441 | 37956 ft | 433 kts | 236° |
| 2026-04-30 18:28 | 36.10793 | -35.18382 | 37970 ft | 431 kts | 236° |
| 2026-04-30 18:28 | 36.05429 | -35.27279 | 37969 ft | 430 kts | 236° |
| 2026-04-30 18:29 | 35.98290 | -35.39087 | 37972 ft | 430 kts | 236° |
| 2026-04-30 18:30 | 35.91104 | -35.50931 | 37957 ft | 431 kts | 235° |
| 2026-04-30 18:31 | 35.85693 | -35.59824 | 37964 ft | 432 kts | 235° |
| 2026-04-30 18:32 | 35.80314 | -35.68639 | 37964 ft | 433 kts | 235° |
| 2026-04-30 18:33 | 35.74847 | -35.77576 | 37956 ft | 433 kts | 235° |
| 2026-04-30 18:33 | 35.69397 | -35.86463 | 37965 ft | 433 kts | 234° |
| 2026-04-30 18:34 | 35.63962 | -35.95302 | 37968 ft | 434 kts | 234° |
| 2026-04-30 18:35 | 35.60435 | -36.01026 | 37958 ft | 434 kts | 234° |
| 2026-04-30 18:35 | 35.56774 | -36.06959 | 37959 ft | 434 kts | 234° |
| 2026-04-30 18:36 | 35.51292 | -36.15822 | 37958 ft | 434 kts | 234° |
| 2026-04-30 18:37 | 35.46418 | -36.23683 | 37961 ft | 435 kts | 234° |
| 2026-04-30 18:37 | 35.42745 | -36.29596 | 37947 ft | 435 kts | 234° |
| 2026-04-30 18:38 | 35.39111 | -36.35436 | 37955 ft | 435 kts | 234° |
| 2026-04-30 18:38 | 35.35436 | -36.41332 | 37953 ft | 436 kts | 234° |
| 2026-04-30 18:39 | 35.31732 | -36.47264 | 37952 ft | 436 kts | 234° |
| 2026-04-30 18:39 | 35.28041 | -36.53165 | 37952 ft | 436 kts | 234° |
| 2026-04-30 18:40 | 35.24380 | -36.59009 | 37936 ft | 436 kts | 233° |
| 2026-04-30 18:40 | 35.20667 | -36.64927 | 37943 ft | 435 kts | 233° |
| 2026-04-30 18:41 | 35.16979 | -36.70794 | 37943 ft | 434 kts | 233° |
| 2026-04-30 18:41 | 35.13299 | -36.76638 | 37934 ft | 434 kts | 233° |
| 2026-04-30 18:42 | 35.09651 | -36.82422 | 37935 ft | 434 kts | 233° |
| 2026-04-30 18:42 | 35.04099 | -36.91208 | 37932 ft | 434 kts | 233° |
| 2026-04-30 18:45 | 34.83746 | -37.23226 | 37918 ft | 439 kts | 233° |
| 2026-04-30 18:46 | 34.80013 | -37.29068 | 37914 ft | 440 kts | 233° |
| 2026-04-30 18:46 | 34.76241 | -37.34960 | 37912 ft | 440 kts | 233° |
| 2026-04-30 18:47 | 34.72488 | -37.40812 | 37907 ft | 439 kts | 233° |
| 2026-04-30 18:47 | 34.68730 | -37.46663 | 37905 ft | 438 kts | 233° |
| 2026-04-30 18:48 | 34.64984 | -37.52486 | 37899 ft | 437 kts | 232° |
| 2026-04-30 18:48 | 34.61264 | -37.58259 | 37902 ft | 436 kts | 232° |
| 2026-04-30 18:49 | 34.57514 | -37.64069 | 37897 ft | 436 kts | 232° |
| 2026-04-30 18:49 | 34.53769 | -37.69862 | 37902 ft | 436 kts | 232° |
| 2026-04-30 18:50 | 34.50044 | -37.75614 | 37888 ft | 436 kts | 232° |
| 2026-04-30 18:50 | 34.46289 | -37.81404 | 37890 ft | 437 kts | 232° |
| 2026-04-30 18:51 | 34.42544 | -37.87169 | 37886 ft | 438 kts | 232° |
| 2026-04-30 18:51 | 34.38794 | -37.92932 | 37880 ft | 438 kts | 232° |
| 2026-04-30 18:52 | 34.34986 | -37.98773 | 37904 ft | 439 kts | 232° |
| 2026-04-30 18:52 | 34.31310 | -38.04404 | 37860 ft | 443 kts | 232° |
| 2026-04-30 18:53 | 34.27508 | -38.10219 | 37859 ft | 440 kts | 232° |
| 2026-04-30 18:53 | 34.23717 | -38.16008 | 37865 ft | 438 kts | 232° |
| 2026-04-30 18:54 | 34.19935 | -38.21773 | 37857 ft | 436 kts | 232° |
| 2026-04-30 18:54 | 34.16200 | -38.27458 | 37867 ft | 436 kts | 232° |
| 2026-04-30 18:55 | 34.12391 | -38.33245 | 37867 ft | 437 kts | 232° |
| 2026-04-30 18:55 | 34.06729 | -38.41832 | 37862 ft | 438 kts | 232° |
| 2026-04-30 18:56 | 34.01010 | -38.50485 | 37854 ft | 439 kts | 232° |
| 2026-04-30 18:57 | 33.95305 | -38.59095 | 37845 ft | 440 kts | 232° |
| 2026-04-30 18:57 | 33.91482 | -38.64854 | 37843 ft | 440 kts | 232° |
| 2026-04-30 18:58 | 33.85743 | -38.73481 | 37841 ft | 441 kts | 232° |
| 2026-04-30 18:59 | 33.79995 | -38.82101 | 37845 ft | 442 kts | 232° |
| 2026-04-30 19:00 | 33.72285 | -38.93631 | 37833 ft | 442 kts | 232° |
| 2026-04-30 19:01 | 33.64665 | -39.04990 | 37824 ft | 441 kts | 232° |
| 2026-04-30 19:02 | 33.58887 | -39.13580 | 37822 ft | 441 kts | 232° |
| 2026-04-30 19:03 | 33.51193 | -39.24988 | 37813 ft | 441 kts | 232° |
| 2026-04-30 19:04 | 33.43468 | -39.36404 | 37815 ft | 440 kts | 232° |
| 2026-04-30 19:05 | 33.35793 | -39.47712 | 37794 ft | 439 kts | 232° |
| 2026-04-30 19:06 | 33.28065 | -39.59064 | 37800 ft | 438 kts | 232° |
| 2026-04-30 19:06 | 33.22340 | -39.67450 | 37796 ft | 437 kts | 232° |
| 2026-04-30 19:07 | 33.16550 | -39.75912 | 37786 ft | 437 kts | 232° |
| 2026-04-30 19:08 | 33.08842 | -39.87149 | 37783 ft | 437 kts | 232° |
| 2026-04-30 19:09 | 33.03054 | -39.95566 | 37785 ft | 437 kts | 232° |
| 2026-04-30 19:09 | 32.99377 | -40.01042 | 37782 ft | 437 kts | 236° |
| 2026-04-30 19:10 | 32.92616 | -40.13082 | 37778 ft | 437 kts | 237° |
| 2026-04-30 19:11 | 32.87578 | -40.22038 | 37770 ft | 436 kts | 237° |
| 2026-04-30 19:12 | 32.84155 | -40.28094 | 37779 ft | 435 kts | 238° |
| 2026-04-30 19:12 | 32.80800 | -40.34018 | 37781 ft | 434 kts | 237° |
| 2026-04-30 19:13 | 32.74069 | -40.45876 | 37779 ft | 433 kts | 237° |
| 2026-04-30 19:14 | 32.70711 | -40.51778 | 37784 ft | 432 kts | 238° |
| 2026-04-30 19:14 | 32.67327 | -40.57717 | 37777 ft | 432 kts | 238° |
| 2026-04-30 19:15 | 32.63954 | -40.63627 | 37783 ft | 432 kts | 238° |
| 2026-04-30 19:15 | 32.58928 | -40.72413 | 37785 ft | 431 kts | 238° |
| 2026-04-30 19:16 | 32.55552 | -40.78305 | 37784 ft | 431 kts | 238° |
| 2026-04-30 19:17 | 32.50490 | -40.87122 | 37778 ft | 430 kts | 238° |
| 2026-04-30 19:17 | 32.45430 | -40.95915 | 37778 ft | 430 kts | 238° |
| 2026-04-30 19:18 | 32.40476 | -41.04504 | 37781 ft | 429 kts | 238° |
| 2026-04-30 19:19 | 32.37136 | -41.10284 | 37779 ft | 429 kts | 238° |
| 2026-04-30 19:19 | 32.32058 | -41.19053 | 37780 ft | 429 kts | 238° |
| 2026-04-30 19:20 | 32.28686 | -41.24865 | 37776 ft | 429 kts | 238° |
| 2026-04-30 19:21 | 32.23618 | -41.33585 | 37766 ft | 429 kts | 238° |
| 2026-04-30 19:22 | 32.16874 | -41.45156 | 37787 ft | 429 kts | 238° |
| 2026-04-30 19:23 | 32.06688 | -41.62567 | 38773 ft | 428 kts | 238° |
| 2026-04-30 19:24 | 32.03305 | -41.68331 | 39282 ft | 428 kts | 238° |
| 2026-04-30 19:24 | 32.01609 | -41.71218 | 39499 ft | 429 kts | 238° |
| 2026-04-30 19:24 | 31.98196 | -41.77025 | 39728 ft | 433 kts | 238° |
| 2026-04-30 19:25 | 31.93065 | -41.85730 | 39768 ft | 429 kts | 239° |
| 2026-04-30 19:26 | 31.86840 | -41.96266 | 39776 ft | 427 kts | 239° |
| 2026-04-30 19:27 | 31.81866 | -42.04666 | 39780 ft | 426 kts | 239° |
| 2026-04-30 19:28 | 31.76791 | -42.13219 | 39780 ft | 427 kts | 239° |
| 2026-04-30 19:29 | 31.69961 | -42.24697 | 39780 ft | 429 kts | 239° |
| 2026-04-30 19:30 | 31.63123 | -42.36153 | 39778 ft | 430 kts | 239° |
| 2026-04-30 19:31 | 31.56265 | -42.47609 | 39769 ft | 429 kts | 239° |
| 2026-04-30 19:31 | 31.51105 | -42.56206 | 39776 ft | 429 kts | 239° |
| 2026-04-30 19:32 | 31.47686 | -42.61893 | 39769 ft | 429 kts | 239° |
| 2026-04-30 19:32 | 31.44250 | -42.67598 | 39780 ft | 428 kts | 239° |
| 2026-04-30 19:33 | 31.40812 | -42.73300 | 39780 ft | 428 kts | 239° |
| 2026-04-30 19:33 | 31.37372 | -42.78997 | 39781 ft | 428 kts | 239° |
| 2026-04-30 19:34 | 31.33926 | -42.84694 | 39774 ft | 428 kts | 239° |
| 2026-04-30 19:35 | 31.28770 | -42.93204 | 39781 ft | 428 kts | 239° |
| 2026-04-30 19:35 | 31.25321 | -42.98887 | 39780 ft | 429 kts | 239° |
| 2026-04-30 19:36 | 31.21960 | -43.04415 | 39776 ft | 429 kts | 239° |
| 2026-04-30 19:36 | 31.16757 | -43.12959 | 39783 ft | 429 kts | 239° |
| 2026-04-30 19:37 | 31.13295 | -43.18635 | 39790 ft | 429 kts | 239° |
| 2026-04-30 19:37 | 31.09847 | -43.24279 | 39786 ft | 430 kts | 239° |
| 2026-04-30 19:38 | 31.06373 | -43.29956 | 39782 ft | 430 kts | 239° |
| 2026-04-30 19:38 | 31.02911 | -43.35606 | 39785 ft | 430 kts | 239° |
| 2026-04-30 19:39 | 30.99437 | -43.41267 | 39788 ft | 430 kts | 239° |
| 2026-04-30 19:39 | 30.95968 | -43.46912 | 39760 ft | 430 kts | 240° |
| 2026-04-30 19:40 | 30.92483 | -43.52575 | 39781 ft | 430 kts | 240° |
| 2026-04-30 19:40 | 30.88994 | -43.58237 | 39790 ft | 430 kts | 239° |
| 2026-04-30 19:41 | 30.85497 | -43.63904 | 39781 ft | 430 kts | 240° |
| 2026-04-30 19:41 | 30.82041 | -43.69495 | 39792 ft | 430 kts | 240° |
| 2026-04-30 19:42 | 30.78505 | -43.75209 | 39789 ft | 431 kts | 240° |
| 2026-04-30 19:42 | 30.75028 | -43.80819 | 39789 ft | 431 kts | 240° |
| 2026-04-30 19:43 | 30.71516 | -43.86478 | 39787 ft | 431 kts | 240° |
| 2026-04-30 19:44 | 30.66231 | -43.94976 | 39792 ft | 431 kts | 240° |
| 2026-04-30 19:44 | 30.62806 | -44.00475 | 39792 ft | 431 kts | 240° |
| 2026-04-30 19:45 | 30.59289 | -44.06113 | 39786 ft | 431 kts | 240° |
| 2026-04-30 19:45 | 30.55774 | -44.11740 | 39790 ft | 430 kts | 240° |
| 2026-04-30 19:46 | 30.52276 | -44.17332 | 39793 ft | 430 kts | 240° |
| 2026-04-30 19:46 | 30.48760 | -44.22945 | 39778 ft | 430 kts | 240° |
| 2026-04-30 19:47 | 30.45254 | -44.28535 | 39784 ft | 429 kts | 240° |
| 2026-04-30 19:47 | 30.41754 | -44.34107 | 39796 ft | 428 kts | 240° |
| 2026-04-30 19:48 | 30.38241 | -44.39692 | 39797 ft | 428 kts | 240° |
| 2026-04-30 19:48 | 30.34750 | -44.45234 | 39801 ft | 427 kts | 240° |
| 2026-04-30 19:49 | 30.31252 | -44.50780 | 39784 ft | 427 kts | 240° |
| 2026-04-30 19:49 | 30.26003 | -44.59087 | 39797 ft | 425 kts | 240° |
| 2026-04-30 19:50 | 30.22520 | -44.64590 | 39781 ft | 425 kts | 240° |
| 2026-04-30 19:50 | 30.19011 | -44.70126 | 39794 ft | 424 kts | 240° |
| 2026-04-30 19:51 | 30.15529 | -44.75614 | 39803 ft | 423 kts | 240° |
| 2026-04-30 19:51 | 30.12053 | -44.81084 | 39794 ft | 423 kts | 240° |
| 2026-04-30 19:52 | 30.08559 | -44.86575 | 39800 ft | 423 kts | 240° |
| 2026-04-30 19:52 | 30.05070 | -44.92053 | 39806 ft | 423 kts | 240° |
| 2026-04-30 19:53 | 30.01597 | -44.97497 | 39808 ft | 423 kts | 240° |
| 2026-04-30 19:53 | 29.98320 | -45.02897 | 39811 ft | 421 kts | 243° |
| 2026-04-30 19:54 | 29.95126 | -45.08553 | 39811 ft | 421 kts | 243° |
| 2026-04-30 19:54 | 29.91947 | -45.14199 | 39799 ft | 420 kts | 243° |
| 2026-04-30 19:55 | 29.88751 | -45.19852 | 39814 ft | 420 kts | 243° |
| 2026-04-30 19:55 | 29.85548 | -45.25496 | 39814 ft | 420 kts | 243° |
| 2026-04-30 19:56 | 29.82341 | -45.31135 | 39790 ft | 421 kts | 243° |
| 2026-04-30 19:56 | 29.79152 | -45.36734 | 39809 ft | 420 kts | 243° |
| 2026-04-30 19:57 | 29.75944 | -45.42360 | 39802 ft | 420 kts | 243° |
| 2026-04-30 19:57 | 29.72720 | -45.48005 | 39809 ft | 420 kts | 243° |
| 2026-04-30 19:58 | 29.69514 | -45.53611 | 39811 ft | 420 kts | 243° |
| 2026-04-30 19:58 | 29.66311 | -45.59204 | 39819 ft | 420 kts | 243° |
| 2026-04-30 19:59 | 29.63093 | -45.64817 | 39814 ft | 420 kts | 243° |
| 2026-04-30 20:00 | 29.58261 | -45.73228 | 39813 ft | 420 kts | 243° |
| 2026-04-30 20:00 | 29.55048 | -45.78810 | 39822 ft | 420 kts | 243° |
| 2026-04-30 20:01 | 29.50212 | -45.87203 | 39817 ft | 420 kts | 243° |
| 2026-04-30 20:01 | 29.46978 | -45.92805 | 39795 ft | 420 kts | 243° |
| 2026-04-30 20:02 | 29.42213 | -46.01043 | 39816 ft | 420 kts | 243° |
| 2026-04-30 20:03 | 29.37355 | -46.09427 | 39823 ft | 421 kts | 243° |
| 2026-04-30 20:03 | 29.34149 | -46.14949 | 39799 ft | 421 kts | 243° |
| 2026-04-30 20:04 | 29.30880 | -46.20573 | 39828 ft | 422 kts | 243° |
| 2026-04-30 20:05 | 29.26005 | -46.28946 | 39829 ft | 422 kts | 243° |
| 2026-04-30 20:05 | 29.21092 | -46.37367 | 39819 ft | 422 kts | 243° |
| 2026-04-30 20:06 | 29.17838 | -46.42935 | 39831 ft | 423 kts | 243° |
| 2026-04-30 20:06 | 29.14567 | -46.48524 | 39830 ft | 423 kts | 243° |
| 2026-04-30 20:07 | 29.11284 | -46.54125 | 39833 ft | 423 kts | 243° |
| 2026-04-30 20:08 | 29.06361 | -46.62512 | 39831 ft | 423 kts | 242° |
| 2026-04-30 20:08 | 29.03073 | -46.68105 | 39834 ft | 424 kts | 242° |
| 2026-04-30 20:09 | 28.99820 | -46.73630 | 39836 ft | 424 kts | 242° |
| 2026-04-30 20:09 | 28.94882 | -46.82003 | 39833 ft | 424 kts | 242° |
| 2026-04-30 20:10 | 28.89910 | -46.90417 | 39840 ft | 425 kts | 242° |
| 2026-04-30 20:11 | 28.84952 | -46.98791 | 39846 ft | 426 kts | 242° |
| 2026-04-30 20:11 | 28.81745 | -47.04199 | 39841 ft | 426 kts | 242° |
| 2026-04-30 20:12 | 28.76735 | -47.12631 | 39848 ft | 427 kts | 242° |
| 2026-04-30 20:13 | 28.73397 | -47.18242 | 39850 ft | 427 kts | 242° |
| 2026-04-30 20:13 | 28.70077 | -47.23814 | 39840 ft | 427 kts | 242° |
| 2026-04-30 20:14 | 28.66741 | -47.29406 | 39848 ft | 427 kts | 242° |
| 2026-04-30 20:14 | 28.63385 | -47.35022 | 39853 ft | 428 kts | 242° |
| 2026-04-30 20:15 | 28.60599 | -47.39680 | 39854 ft | 428 kts | 242° |
| 2026-04-30 20:15 | 28.56696 | -47.46197 | 39859 ft | 428 kts | 241° |
| 2026-04-30 20:16 | 28.53334 | -47.51801 | 39851 ft | 429 kts | 241° |
| 2026-04-30 20:16 | 28.50535 | -47.56461 | 39862 ft | 429 kts | 241° |
| 2026-04-30 20:17 | 28.47162 | -47.62073 | 39848 ft | 429 kts | 241° |
| 2026-04-30 20:17 | 28.43818 | -47.67627 | 39849 ft | 429 kts | 241° |
| 2026-04-30 20:18 | 28.40417 | -47.73268 | 39857 ft | 430 kts | 241° |
| 2026-04-30 20:18 | 28.37060 | -47.78830 | 39858 ft | 430 kts | 240° |
| 2026-04-30 20:19 | 28.33648 | -47.84474 | 39861 ft | 430 kts | 240° |
| 2026-04-30 20:19 | 28.30253 | -47.90084 | 39857 ft | 431 kts | 240° |
| 2026-04-30 20:20 | 28.26853 | -47.95694 | 39858 ft | 431 kts | 240° |
| 2026-04-30 20:20 | 28.23599 | -48.01056 | 39866 ft | 431 kts | 240° |
| 2026-04-30 20:21 | 28.20175 | -48.06691 | 39861 ft | 431 kts | 240° |
| 2026-04-30 20:21 | 28.16769 | -48.12290 | 39856 ft | 430 kts | 240° |
| 2026-04-30 20:22 | 28.13373 | -48.17866 | 39855 ft | 430 kts | 240° |
| 2026-04-30 20:22 | 28.09969 | -48.23446 | 39867 ft | 430 kts | 240° |
| 2026-04-30 20:23 | 28.06564 | -48.29021 | 39872 ft | 431 kts | 240° |
| 2026-04-30 20:23 | 28.03182 | -48.34551 | 39857 ft | 430 kts | 240° |
| 2026-04-30 20:24 | 27.99779 | -48.40108 | 39869 ft | 430 kts | 240° |
| 2026-04-30 20:24 | 27.96374 | -48.45661 | 39878 ft | 431 kts | 240° |
| 2026-04-30 20:25 | 27.91239 | -48.54025 | 39869 ft | 431 kts | 240° |
| 2026-04-30 20:26 | 27.86106 | -48.62367 | 39863 ft | 430 kts | 239° |
| 2026-04-30 20:26 | 27.80995 | -48.70658 | 39880 ft | 430 kts | 239° |
| 2026-04-30 20:27 | 27.74152 | -48.81734 | 39868 ft | 430 kts | 239° |
| 2026-04-30 20:28 | 27.67302 | -48.92791 | 39878 ft | 429 kts | 239° |
| 2026-04-30 20:30 | 27.58862 | -49.06379 | 39886 ft | 428 kts | 239° |
| 2026-04-30 20:31 | 27.48611 | -49.22825 | 39890 ft | 428 kts | 239° |
| 2026-04-30 20:32 | 27.40018 | -49.36565 | 39889 ft | 428 kts | 239° |
| 2026-04-30 20:33 | 27.34892 | -49.44740 | 39889 ft | 428 kts | 239° |
| 2026-04-30 20:34 | 27.29737 | -49.52947 | 39891 ft | 428 kts | 239° |
| 2026-04-30 20:35 | 27.24586 | -49.61132 | 39894 ft | 428 kts | 239° |
| 2026-04-30 20:35 | 27.19429 | -49.69311 | 39899 ft | 428 kts | 238° |
| 2026-04-30 20:36 | 27.15986 | -49.74762 | 39898 ft | 427 kts | 239° |
| 2026-04-30 20:37 | 27.10817 | -49.82937 | 39901 ft | 427 kts | 239° |
| 2026-04-30 20:37 | 27.07376 | -49.88372 | 39899 ft | 427 kts | 239° |
| 2026-04-30 20:38 | 27.03952 | -49.93773 | 39897 ft | 427 kts | 239° |
| 2026-04-30 20:38 | 27.00528 | -49.99166 | 39903 ft | 426 kts | 239° |
| 2026-04-30 20:39 | 26.95749 | -50.07278 | 39902 ft | 423 kts | 242° |
| 2026-04-30 20:40 | 26.91057 | -50.15662 | 39902 ft | 422 kts | 242° |
| 2026-04-30 20:40 | 26.87929 | -50.21183 | 39902 ft | 422 kts | 242° |
| 2026-04-30 20:41 | 26.83182 | -50.29500 | 39907 ft | 422 kts | 242° |
| 2026-04-30 20:41 | 26.80024 | -50.35018 | 39905 ft | 422 kts | 242° |
| 2026-04-30 20:42 | 26.76831 | -50.40592 | 39907 ft | 423 kts | 242° |
| 2026-04-30 20:43 | 26.72085 | -50.48863 | 39904 ft | 423 kts | 242° |
| 2026-04-30 20:43 | 26.68906 | -50.54395 | 39909 ft | 422 kts | 242° |
| 2026-04-30 20:44 | 26.64147 | -50.62664 | 39909 ft | 421 kts | 242° |
| 2026-04-30 20:45 | 26.57805 | -50.73661 | 39897 ft | 420 kts | 242° |
| 2026-04-30 20:45 | 26.54657 | -50.79107 | 39907 ft | 419 kts | 242° |
| 2026-04-30 20:46 | 26.48342 | -50.90017 | 39919 ft | 418 kts | 242° |
| 2026-04-30 20:47 | 26.43606 | -50.98183 | 39894 ft | 418 kts | 242° |
| 2026-04-30 20:48 | 26.38978 | -51.06148 | 39913 ft | 416 kts | 242° |
| 2026-04-30 20:48 | 26.35824 | -51.11567 | 39919 ft | 416 kts | 242° |
| 2026-04-30 20:49 | 26.32670 | -51.16981 | 39919 ft | 416 kts | 242° |
| 2026-04-30 20:50 | 26.27950 | -51.25071 | 39897 ft | 416 kts | 242° |
| 2026-04-30 20:50 | 26.24784 | -51.30487 | 39907 ft | 415 kts | 242° |
| 2026-04-30 20:51 | 26.21632 | -51.35875 | 39917 ft | 414 kts | 242° |
| 2026-04-30 20:51 | 26.16930 | -51.43900 | 39916 ft | 414 kts | 242° |
| 2026-04-30 20:52 | 26.13797 | -51.49240 | 39915 ft | 414 kts | 242° |
| 2026-04-30 20:53 | 26.09077 | -51.57271 | 39916 ft | 413 kts | 242° |
| 2026-04-30 20:53 | 26.05935 | -51.62609 | 39924 ft | 412 kts | 242° |
| 2026-04-30 20:54 | 26.01196 | -51.70651 | 39929 ft | 412 kts | 241° |
| 2026-04-30 20:55 | 25.96501 | -51.78604 | 39906 ft | 412 kts | 241° |
| 2026-04-30 20:55 | 25.93356 | -51.83924 | 39934 ft | 411 kts | 241° |
| 2026-04-30 20:56 | 25.88637 | -51.91894 | 39935 ft | 412 kts | 241° |
| 2026-04-30 20:57 | 25.83935 | -51.99822 | 39938 ft | 412 kts | 241° |
| 2026-04-30 20:57 | 25.80860 | -52.05000 | 39921 ft | 412 kts | 241° |
| 2026-04-30 20:58 | 25.76108 | -52.12989 | 39937 ft | 413 kts | 241° |
| 2026-04-30 20:58 | 25.72940 | -52.18309 | 39937 ft | 413 kts | 241° |
| 2026-04-30 20:59 | 25.68189 | -52.26274 | 39940 ft | 414 kts | 241° |
| 2026-04-30 21:00 | 25.61856 | -52.36870 | 39939 ft | 414 kts | 240° |
| 2026-04-30 21:01 | 25.57060 | -52.44879 | 39948 ft | 415 kts | 240° |
| 2026-04-30 21:02 | 25.52252 | -52.52893 | 39956 ft | 416 kts | 240° |
| 2026-04-30 21:02 | 25.49044 | -52.58235 | 39947 ft | 416 kts | 240° |
| 2026-04-30 21:03 | 25.45871 | -52.63510 | 39939 ft | 417 kts | 240° |
| 2026-04-30 21:03 | 25.42631 | -52.68890 | 39946 ft | 417 kts | 240° |
| 2026-04-30 21:04 | 25.39402 | -52.74248 | 39952 ft | 418 kts | 240° |
| 2026-04-30 21:04 | 25.34556 | -52.82279 | 39949 ft | 419 kts | 240° |
| 2026-04-30 21:05 | 25.31355 | -52.87571 | 39950 ft | 419 kts | 240° |
| 2026-04-30 21:05 | 25.28655 | -52.92032 | 39952 ft | 418 kts | 240° |
| 2026-04-30 21:06 | 25.25401 | -52.97404 | 39946 ft | 418 kts | 240° |
| 2026-04-30 21:06 | 25.22249 | -53.02603 | 39949 ft | 418 kts | 240° |
| 2026-04-30 21:07 | 25.19032 | -53.07901 | 39951 ft | 418 kts | 240° |
| 2026-04-30 21:07 | 25.15808 | -53.13206 | 39950 ft | 418 kts | 240° |
| 2026-04-30 21:08 | 25.12557 | -53.18549 | 39940 ft | 418 kts | 240° |
| 2026-04-30 21:08 | 25.09299 | -53.23899 | 39946 ft | 418 kts | 240° |
| 2026-04-30 21:09 | 25.06077 | -53.29183 | 39948 ft | 419 kts | 240° |
| 2026-04-30 21:09 | 25.02822 | -53.34514 | 39949 ft | 420 kts | 240° |
| 2026-04-30 21:10 | 24.99537 | -53.39890 | 39966 ft | 421 kts | 240° |
| 2026-04-30 21:10 | 24.96266 | -53.45235 | 39953 ft | 421 kts | 240° |
| 2026-04-30 21:11 | 24.93007 | -53.50555 | 39954 ft | 422 kts | 240° |
| 2026-04-30 21:11 | 24.89725 | -53.55908 | 39953 ft | 422 kts | 240° |
| 2026-04-30 21:12 | 24.86420 | -53.61291 | 39955 ft | 422 kts | 240° |
| 2026-04-30 21:12 | 24.83127 | -53.66648 | 39952 ft | 422 kts | 240° |
| 2026-04-30 21:13 | 24.79828 | -53.72011 | 39933 ft | 422 kts | 240° |
| 2026-04-30 21:13 | 24.76545 | -53.77340 | 39956 ft | 421 kts | 240° |
| 2026-04-30 21:14 | 24.73250 | -53.82684 | 39957 ft | 421 kts | 240° |
| 2026-04-30 21:14 | 24.69975 | -53.87990 | 39955 ft | 420 kts | 240° |
| 2026-04-30 21:15 | 24.66694 | -53.93298 | 39958 ft | 420 kts | 240° |
| 2026-04-30 21:15 | 24.63413 | -53.98601 | 39964 ft | 420 kts | 240° |
| 2026-04-30 21:16 | 24.60224 | -54.03748 | 39950 ft | 419 kts | 241° |
| 2026-04-30 21:16 | 24.56932 | -54.09059 | 39955 ft | 417 kts | 241° |
| 2026-04-30 21:17 | 24.53706 | -54.14257 | 39962 ft | 417 kts | 241° |
| 2026-04-30 21:17 | 24.50397 | -54.19583 | 39962 ft | 416 kts | 241° |
| 2026-04-30 21:18 | 24.47160 | -54.24788 | 39977 ft | 416 kts | 240° |
| 2026-04-30 21:18 | 24.43900 | -54.30022 | 39958 ft | 415 kts | 241° |
| 2026-04-30 21:19 | 24.40642 | -54.35249 | 39966 ft | 414 kts | 241° |
| 2026-04-30 21:19 | 24.37386 | -54.40467 | 39966 ft | 413 kts | 241° |
| 2026-04-30 21:20 | 24.34157 | -54.45639 | 39970 ft | 413 kts | 241° |
| 2026-04-30 21:20 | 24.30904 | -54.50840 | 39974 ft | 413 kts | 240° |
| 2026-04-30 21:21 | 24.27669 | -54.56009 | 39969 ft | 413 kts | 240° |
| 2026-04-30 21:22 | 24.22796 | -54.63783 | 39970 ft | 412 kts | 241° |
| 2026-04-30 21:23 | 24.16291 | -54.74145 | 39972 ft | 413 kts | 241° |
| 2026-04-30 21:23 | 24.11383 | -54.81946 | 39973 ft | 414 kts | 241° |
| 2026-04-30 21:24 | 24.08149 | -54.87081 | 39959 ft | 414 kts | 241° |
| 2026-04-30 21:24 | 24.04881 | -54.92265 | 39973 ft | 414 kts | 241° |
| 2026-04-30 21:25 | 23.99968 | -55.00011 | 39979 ft | 415 kts | 239° |
| 2026-04-30 21:26 | 23.94519 | -55.07297 | 39979 ft | 418 kts | 237° |
| 2026-04-30 21:27 | 23.88870 | -55.14546 | 39959 ft | 422 kts | 232° |
| 2026-04-30 21:27 | 23.84637 | -55.18996 | 39974 ft | 423 kts | 231° |
| 2026-04-30 21:28 | 23.78281 | -55.25648 | 39979 ft | 423 kts | 231° |
| 2026-04-30 21:29 | 23.71925 | -55.32322 | 39983 ft | 423 kts | 231° |
| 2026-04-30 21:30 | 23.61310 | -55.43464 | 39978 ft | 422 kts | 231° |
| 2026-04-30 21:31 | 23.50742 | -55.54531 | 39986 ft | 422 kts | 231° |
| 2026-04-30 21:32 | 23.44366 | -55.61195 | 39985 ft | 423 kts | 231° |
| 2026-04-30 21:32 | 23.40155 | -55.65591 | 39983 ft | 422 kts | 231° |
| 2026-04-30 21:33 | 23.33781 | -55.72237 | 39987 ft | 422 kts | 231° |
| 2026-04-30 21:34 | 23.29541 | -55.76654 | 39984 ft | 422 kts | 231° |
| 2026-04-30 21:34 | 23.23204 | -55.83245 | 39980 ft | 422 kts | 231° |
| 2026-04-30 21:35 | 23.18917 | -55.87700 | 39990 ft | 422 kts | 231° |
| 2026-04-30 21:35 | 23.14690 | -55.92089 | 39986 ft | 422 kts | 231° |
| 2026-04-30 21:36 | 23.10442 | -55.96496 | 39991 ft | 422 kts | 231° |
| 2026-04-30 21:37 | 23.02073 | -56.05163 | 39982 ft | 422 kts | 231° |
| 2026-04-30 21:37 | 22.97840 | -56.09542 | 39984 ft | 422 kts | 231° |
| 2026-04-30 21:38 | 22.93584 | -56.13940 | 39984 ft | 422 kts | 231° |
| 2026-04-30 21:38 | 22.89333 | -56.18329 | 39986 ft | 422 kts | 231° |
| 2026-04-30 21:39 | 22.85067 | -56.22730 | 40004 ft | 422 kts | 231° |
| 2026-04-30 21:39 | 22.80803 | -56.27125 | 39991 ft | 422 kts | 231° |
| 2026-04-30 21:40 | 22.76560 | -56.31495 | 39998 ft | 423 kts | 231° |
| 2026-04-30 21:40 | 22.72288 | -56.35890 | 39995 ft | 424 kts | 231° |
| 2026-04-30 21:41 | 22.68008 | -56.40289 | 39993 ft | 424 kts | 231° |
| 2026-04-30 21:41 | 22.63717 | -56.44695 | 39990 ft | 424 kts | 231° |
| 2026-04-30 21:42 | 22.59451 | -56.49071 | 39979 ft | 425 kts | 231° |
| 2026-04-30 21:42 | 22.55163 | -56.53468 | 39989 ft | 426 kts | 231° |
| 2026-04-30 21:43 | 22.51567 | -56.57151 | 39994 ft | 426 kts | 231° |
| 2026-04-30 21:43 | 22.46525 | -56.62310 | 39992 ft | 427 kts | 231° |
| 2026-04-30 21:44 | 22.42200 | -56.66731 | 39989 ft | 427 kts | 231° |
| 2026-04-30 21:44 | 22.37900 | -56.71123 | 39978 ft | 428 kts | 231° |
| 2026-04-30 21:45 | 22.33573 | -56.75538 | 39987 ft | 428 kts | 231° |
| 2026-04-30 21:45 | 22.29229 | -56.79967 | 39989 ft | 429 kts | 231° |
| 2026-04-30 21:46 | 22.24939 | -56.84337 | 39997 ft | 429 kts | 231° |
| 2026-04-30 21:46 | 22.20569 | -56.88783 | 39992 ft | 429 kts | 231° |
| 2026-04-30 21:47 | 22.16262 | -56.93163 | 39981 ft | 429 kts | 230° |
| 2026-04-30 21:47 | 22.11898 | -56.97597 | 39986 ft | 429 kts | 230° |
| 2026-04-30 21:48 | 22.07682 | -57.01876 | 39996 ft | 429 kts | 230° |
| 2026-04-30 21:48 | 22.03344 | -57.06275 | 39996 ft | 430 kts | 230° |
| 2026-04-30 21:49 | 21.99018 | -57.10659 | 39995 ft | 430 kts | 230° |
| 2026-04-30 21:49 | 21.94638 | -57.15093 | 39973 ft | 430 kts | 230° |
| 2026-04-30 21:50 | 21.90267 | -57.19514 | 39985 ft | 431 kts | 230° |
| 2026-04-30 21:50 | 21.85894 | -57.23932 | 39996 ft | 431 kts | 230° |
| 2026-04-30 21:51 | 21.81560 | -57.28308 | 39998 ft | 431 kts | 230° |
| 2026-04-30 21:51 | 21.77165 | -57.32742 | 39991 ft | 432 kts | 230° |
| 2026-04-30 21:52 | 21.72775 | -57.37166 | 39973 ft | 432 kts | 230° |
| 2026-04-30 21:52 | 21.68394 | -57.41577 | 39984 ft | 431 kts | 230° |
| 2026-04-30 21:53 | 21.64724 | -57.45269 | 40003 ft | 431 kts | 230° |
| 2026-04-30 21:53 | 21.60384 | -57.49633 | 40000 ft | 431 kts | 230° |
| 2026-04-30 21:54 | 21.55996 | -57.54041 | 39997 ft | 430 kts | 230° |
| 2026-04-30 21:54 | 21.51612 | -57.58441 | 39983 ft | 430 kts | 230° |
| 2026-04-30 21:55 | 21.47278 | -57.62786 | 39982 ft | 430 kts | 230° |
| 2026-04-30 21:55 | 21.42893 | -57.67181 | 40001 ft | 430 kts | 230° |
| 2026-04-30 21:56 | 21.38539 | -57.71539 | 39990 ft | 430 kts | 230° |
| 2026-04-30 21:56 | 21.34155 | -57.75924 | 39992 ft | 429 kts | 230° |
| 2026-04-30 21:57 | 21.29782 | -57.80294 | 39992 ft | 429 kts | 230° |
| 2026-04-30 21:57 | 21.25390 | -57.84680 | 39992 ft | 429 kts | 230° |
| 2026-04-30 21:58 | 21.21023 | -57.89036 | 39992 ft | 429 kts | 230° |
| 2026-04-30 21:58 | 21.16685 | -57.93361 | 39992 ft | 429 kts | 230° |
| 2026-04-30 21:59 | 21.12287 | -57.97741 | 39989 ft | 429 kts | 230° |
| 2026-04-30 22:00 | 21.05821 | -58.04174 | 39988 ft | 429 kts | 230° |
| 2026-04-30 22:00 | 20.99289 | -58.10664 | 39991 ft | 429 kts | 230° |
| 2026-04-30 22:01 | 20.94916 | -58.15006 | 39993 ft | 429 kts | 230° |
| 2026-04-30 22:01 | 20.90518 | -58.19369 | 39992 ft | 430 kts | 230° |
| 2026-04-30 22:02 | 20.86135 | -58.23712 | 39994 ft | 430 kts | 230° |
| 2026-04-30 22:02 | 20.81778 | -58.28025 | 39991 ft | 429 kts | 230° |
| 2026-04-30 22:03 | 20.77388 | -58.32368 | 39985 ft | 428 kts | 230° |
| 2026-04-30 22:03 | 20.73010 | -58.36695 | 39990 ft | 428 kts | 230° |
| 2026-04-30 22:04 | 20.68664 | -58.40987 | 39989 ft | 427 kts | 230° |
| 2026-04-30 22:05 | 20.62087 | -58.47477 | 39991 ft | 427 kts | 230° |
| 2026-04-30 22:05 | 20.57776 | -58.51727 | 39992 ft | 427 kts | 230° |
| 2026-04-30 22:06 | 20.53397 | -58.56040 | 39986 ft | 427 kts | 230° |
| 2026-04-30 22:06 | 20.46827 | -58.62504 | 39995 ft | 427 kts | 230° |
| 2026-04-30 22:07 | 20.42483 | -58.66773 | 39994 ft | 427 kts | 230° |
| 2026-04-30 22:07 | 20.38104 | -58.71074 | 39995 ft | 428 kts | 230° |
| 2026-04-30 22:08 | 20.33727 | -58.75370 | 39994 ft | 428 kts | 230° |
| 2026-04-30 22:08 | 20.29355 | -58.79656 | 39989 ft | 428 kts | 229° |
| 2026-04-30 22:09 | 20.24961 | -58.83961 | 39994 ft | 428 kts | 229° |
| 2026-04-30 22:09 | 20.20570 | -58.88260 | 39994 ft | 428 kts | 229° |
| 2026-04-30 22:10 | 20.16210 | -58.92524 | 39994 ft | 428 kts | 229° |
| 2026-04-30 22:10 | 20.11804 | -58.96831 | 39994 ft | 428 kts | 229° |
| 2026-04-30 22:11 | 20.05345 | -59.03136 | 39995 ft | 428 kts | 229° |
| 2026-04-30 22:12 | 20.00977 | -59.07398 | 39992 ft | 427 kts | 229° |
| 2026-04-30 22:12 | 19.96620 | -59.11643 | 39991 ft | 426 kts | 229° |
| 2026-04-30 22:13 | 19.92251 | -59.15899 | 39994 ft | 426 kts | 229° |
| 2026-04-30 22:13 | 19.87898 | -59.20135 | 39994 ft | 425 kts | 229° |
| 2026-04-30 22:14 | 19.83526 | -59.24386 | 39983 ft | 425 kts | 229° |
| 2026-04-30 22:14 | 19.79197 | -59.28592 | 39991 ft | 424 kts | 229° |
| 2026-04-30 22:15 | 19.74819 | -59.32843 | 40002 ft | 423 kts | 229° |
| 2026-04-30 22:15 | 19.70496 | -59.37037 | 39992 ft | 423 kts | 229° |
| 2026-04-30 22:16 | 19.66154 | -59.41246 | 39989 ft | 422 kts | 229° |
| 2026-04-30 22:17 | 19.57481 | -59.49644 | 39982 ft | 422 kts | 229° |
| 2026-04-30 22:17 | 19.50953 | -59.55958 | 39995 ft | 424 kts | 229° |
| 2026-04-30 22:18 | 19.44427 | -59.62262 | 40001 ft | 426 kts | 229° |
| 2026-04-30 22:19 | 19.37850 | -59.68607 | 39994 ft | 427 kts | 229° |
| 2026-04-30 22:20 | 19.31253 | -59.74964 | 39987 ft | 427 kts | 229° |
| 2026-04-30 22:20 | 19.24632 | -59.81337 | 39992 ft | 427 kts | 229° |
| 2026-04-30 22:21 | 19.20264 | -59.85538 | 39992 ft | 427 kts | 228° |
| 2026-04-30 22:21 | 19.15837 | -59.89791 | 39992 ft | 428 kts | 228° |
| 2026-04-30 22:22 | 19.11449 | -59.94004 | 39991 ft | 427 kts | 228° |
| 2026-04-30 22:22 | 19.07028 | -59.98247 | 39982 ft | 428 kts | 228° |
| 2026-04-30 22:23 | 19.02788 | -60.02312 | 39984 ft | 428 kts | 228° |
| 2026-04-30 22:23 | 18.98387 | -60.06529 | 39987 ft | 428 kts | 228° |
| 2026-04-30 22:24 | 18.93991 | -60.10737 | 39993 ft | 429 kts | 228° |
| 2026-04-30 22:24 | 18.89589 | -60.14948 | 39998 ft | 428 kts | 228° |
| 2026-04-30 22:25 | 18.85158 | -60.19182 | 40003 ft | 426 kts | 228° |
| 2026-04-30 22:25 | 18.80746 | -60.23398 | 40002 ft | 428 kts | 228° |
| 2026-04-30 22:26 | 18.74132 | -60.29713 | 39984 ft | 430 kts | 228° |
| 2026-04-30 22:27 | 18.69693 | -60.33944 | 39999 ft | 430 kts | 228° |
| 2026-04-30 22:27 | 18.63024 | -60.40296 | 39984 ft | 430 kts | 228° |
| 2026-04-30 22:28 | 18.56386 | -60.46612 | 39991 ft | 429 kts | 228° |
| 2026-04-30 22:29 | 18.47536 | -60.55023 | 39987 ft | 429 kts | 228° |
| 2026-04-30 22:31 | 18.32028 | -60.69735 | 39433 ft | 438 kts | 227° |
| 2026-04-30 22:32 | 18.25232 | -60.76168 | 37099 ft | 437 kts | 228° |
| 2026-04-30 22:32 | 18.20737 | -60.80417 | 35444 ft | 437 kts | 229° |
| 2026-04-30 22:33 | 18.13831 | -60.86955 | 32420 ft | 449 kts | 228° |
| 2026-04-30 22:33 | 18.09216 | -60.91307 | 30974 ft | 443 kts | 226° |
| 2026-04-30 22:34 | 18.02402 | -60.97732 | 28728 ft | 433 kts | 226° |
| 2026-04-30 22:35 | 17.98186 | -61.01928 | 27335 ft | 422 kts | 229° |
| 2026-04-30 22:36 | 17.90238 | -61.10681 | 24642 ft | 408 kts | 228° |
| 2026-04-30 22:36 | 17.88282 | -61.12831 | 23992 ft | 406 kts | 228° |
| 2026-04-30 22:37 | 17.82478 | -61.19190 | 21875 ft | 396 kts | 227° |
| 2026-04-30 22:37 | 17.80580 | -61.21267 | 21230 ft | 392 kts | 227° |
| 2026-04-30 22:37 | 17.76827 | -61.25370 | 19982 ft | 386 kts | 227° |
| 2026-04-30 22:38 | 17.73139 | -61.29400 | 18743 ft | 383 kts | 227° |
| 2026-04-30 22:38 | 17.69477 | -61.33400 | 17432 ft | 381 kts | 227° |
| 2026-04-30 22:39 | 17.67649 | -61.35394 | 16808 ft | 378 kts | 227° |
| 2026-04-30 22:39 | 17.62214 | -61.41323 | 15018 ft | 371 kts | 227° |
| 2026-04-30 22:40 | 17.57504 | -61.46458 | 13444 ft | 367 kts | 227° |
| 2026-04-30 22:41 | 17.52227 | -61.52204 | 11698 ft | 359 kts | 227° |
| 2026-04-30 22:41 | 17.48795 | -61.55939 | 10726 ft | 352 kts | 226° |
| 2026-04-30 22:42 | 17.42463 | -61.62824 | 10129 ft | 305 kts | 226° |
| 2026-04-30 22:43 | 17.39615 | -61.65918 | 9736 ft | 291 kts | 226° |
| 2026-04-30 22:43 | 17.36827 | -61.68946 | 9054 ft | 288 kts | 226° |
| 2026-04-30 22:44 | 17.34055 | -61.71956 | 8396 ft | 285 kts | 225° |
| 2026-04-30 22:45 | 17.28588 | -61.77888 | 7083 ft | 281 kts | 224° |
| 2026-04-30 22:45 | 17.25908 | -61.80793 | 6461 ft | 280 kts | 225° |
| 2026-04-30 22:46 | 17.23196 | -61.83731 | 5793 ft | 277 kts | 223° |
| 2026-04-30 22:47 | 17.18921 | -61.90265 | 4553 ft | 271 kts | 238° |
| 2026-04-30 22:47 | 17.16960 | -61.93615 | 3921 ft | 271 kts | 237° |
| 2026-04-30 22:48 | 17.14999 | -61.96932 | 3323 ft | 269 kts | 238° |
| 2026-04-30 22:49 | 17.11189 | -62.00369 | 2598 ft | 239 kts | 179° |
| 2026-04-30 22:49 | 17.06923 | -61.98672 | 2519 ft | 214 kts | 145° |
| 2026-04-30 22:50 | 17.04763 | -61.94276 | 2397 ft | 184 kts | 62° |
| 2026-04-30 22:51 | 17.06127 | -61.91996 | 2255 ft | 183 kts | 60° |
| 2026-04-30 22:51 | 17.07297 | -61.90032 | 2040 ft | 136 kts | 60° |
| 2026-04-30 22:52 | 17.07779 | -61.89221 | 2017 ft | 133 kts | 60° |
| 2026-04-30 22:52 | 17.08782 | -61.87526 | 1775 ft | 141 kts | 59° |
| 2026-04-30 22:53 | 17.09751 | -61.85853 | 1236 ft | 130 kts | 63° |
| 2026-04-30 22:53 | 17.10730 | -61.84245 | 939 ft | 135 kts | 59° |
| 2026-04-30 22:53 | 17.11240 | -61.83413 | 728 ft | 137 kts | 60° |
| 2026-04-30 22:54 | 17.12215 | -61.81737 | 374 ft | 135 kts | 61° |
| 2026-04-30 22:55 | 17.13638 | -61.79324 | 66 ft | 107 kts | 58° |
| 2026-04-30 22:55 | 17.14022 | -61.78676 | 67 ft | 11 kts | 58° |
| 2026-04-30 22:56 | 17.14102 | -61.78737 | 64 ft | 13 kts | 278° |
| 2026-04-30 22:56 | 17.14017 | -61.79010 | 61 ft | 12 kts | 239° |
| 2026-04-30 22:57 | 17.13911 | -61.79121 | 59 ft | 4 kts | 205° |
| 2026-04-30 22:57 | 17.13930 | -61.79169 | 64 ft | 4 kts | 334° |
| 2026-04-30 22:58 | 17.13956 | -61.79183 | 63 ft | 0 kts | 328° |